createdAt,value
2022-12-31T00:01:16.839Z,84.44
2022-12-31T00:03:44.144Z,84.37
2022-12-31T00:06:20.821Z,83.82
2022-12-31T00:08:47.672Z,83.84
2022-12-31T00:11:15.454Z,83.72
2022-12-31T00:13:43.139Z,83.73
2022-12-31T00:16:12.721Z,83.28
2022-12-31T00:18:39.314Z,83.18
2022-12-31T00:21:07.939Z,82.69
2022-12-31T00:23:35.368Z,82.50
2022-12-31T00:26:09.936Z,82.38
2022-12-31T00:28:37.624Z,82.12
2022-12-31T00:31:16.274Z,81.94
2022-12-31T00:33:43.806Z,82.04
2022-12-31T00:36:15.431Z,81.90
2022-12-31T00:38:43.907Z,81.78
2022-12-31T00:41:11.145Z,81.76
2022-12-31T00:43:37.991Z,81.57
2022-12-31T00:46:06.358Z,81.38
2022-12-31T00:48:33.856Z,81.61
2022-12-31T00:51:01.228Z,81.57
2022-12-31T00:53:28.314Z,81.88
2022-12-31T00:56:13.188Z,81.39
2022-12-31T00:58:39.592Z,81.16
2022-12-31T01:01:09.892Z,81.67
2022-12-31T01:03:36.541Z,81.73
2022-12-31T01:06:02.907Z,81.63
2022-12-31T01:08:29.251Z,81.64
2022-12-31T01:11:14.010Z,81.86
2022-12-31T01:13:40.378Z,81.42
2022-12-31T01:16:09.054Z,80.93
2022-12-31T01:18:35.603Z,80.52
2022-12-31T01:21:04.016Z,80.90
2022-12-31T01:23:31.036Z,80.99
2022-12-31T01:26:01.249Z,80.70
2022-12-31T01:28:28.420Z,80.78
2022-12-31T01:30:55.389Z,80.73
2022-12-31T01:33:22.085Z,80.25
2022-12-31T01:35:49.273Z,79.85
2022-12-31T01:38:15.749Z,80.21
2022-12-31T01:40:42.364Z,79.47
2022-12-31T01:43:16.347Z,79.60
2022-12-31T01:45:45.790Z,79.84
2022-12-31T01:48:17.326Z,78.98
2022-12-31T01:50:46.481Z,79.03
2022-12-31T01:53:14.385Z,79.07
2022-12-31T01:55:50.190Z,78.82
2022-12-31T01:58:27.543Z,78.55
2022-12-31T02:00:54.954Z,78.50
2022-12-31T02:03:22.821Z,78.21
2022-12-31T02:06:03.269Z,78.04
2022-12-31T02:08:30.046Z,77.96
2022-12-31T02:10:56.462Z,77.72
2022-12-31T02:13:23.197Z,77.32
2022-12-31T02:16:25.206Z,76.94
2022-12-31T02:19:07.746Z,77.04
2022-12-31T02:21:42.056Z,77.30
2022-12-31T02:24:32.097Z,77.08
2022-12-31T02:27:23.988Z,77.22
2022-12-31T02:30:01.845Z,77.21
2022-12-31T02:32:31.708Z,77.02
2022-12-31T02:35:16.660Z,76.77
2022-12-31T02:37:48.025Z,77.19
2022-12-31T02:40:17.319Z,76.98
2022-12-31T02:42:43.663Z,76.72
2022-12-31T02:45:15.006Z,76.83
2022-12-31T02:47:54.656Z,77.35
2022-12-31T02:50:56.953Z,77.44
2022-12-31T02:53:34.196Z,77.88
2022-12-31T02:56:16.548Z,78.48
2022-12-31T02:59:24.951Z,78.12
2022-12-31T03:02:14.411Z,78.70
2022-12-31T03:04:49.449Z,78.21
2022-12-31T03:07:21.756Z,78.36
2022-12-31T03:09:48.736Z,78.57
2022-12-31T03:12:35.536Z,78.64
2022-12-31T03:15:06.484Z,79.50
2022-12-31T03:17:33.937Z,78.35
2022-12-31T03:20:18.971Z,78.65
2022-12-31T03:22:45.693Z,78.57
2022-12-31T03:25:37.873Z,78.55
2022-12-31T03:28:12.360Z,78.13
2022-12-31T03:30:41.957Z,78.08
2022-12-31T03:33:08.951Z,77.84
2022-12-31T03:35:37.281Z,77.41
2022-12-31T03:38:04.687Z,76.90
2022-12-31T03:40:32.709Z,76.17
2022-12-31T03:42:59.104Z,75.66
2022-12-31T03:45:25.473Z,74.92
2022-12-31T03:47:52.040Z,75.27
2022-12-31T03:50:19.937Z,75.02
2022-12-31T03:52:46.454Z,74.99
2022-12-31T03:55:13.265Z,75.18
2022-12-31T03:57:40.061Z,75.30
2022-12-31T04:00:09.963Z,75.10
2022-12-31T04:02:36.763Z,74.64
2022-12-31T04:05:03.614Z,74.23
2022-12-31T04:07:29.981Z,75.27
2022-12-31T04:09:57.026Z,74.87
2022-12-31T04:12:23.371Z,75.08
2022-12-31T04:14:49.748Z,74.96
2022-12-31T04:17:16.082Z,74.68
2022-12-31T04:19:42.441Z,74.99
2022-12-31T04:22:08.988Z,75.84
2022-12-31T04:24:35.309Z,75.72
2022-12-31T04:27:07.235Z,75.73
2022-12-31T04:29:34.411Z,76.78
2022-12-31T04:32:01.200Z,76.98
2022-12-31T04:34:27.804Z,76.84
2022-12-31T04:36:54.222Z,76.20
2022-12-31T04:39:20.642Z,76.11
2022-12-31T04:41:47.137Z,76.32
2022-12-31T04:44:13.520Z,76.10
2022-12-31T04:46:39.869Z,75.58
2022-12-31T04:49:06.332Z,75.55
2022-12-31T04:51:33.643Z,76.05
2022-12-31T04:54:00.451Z,76.58
2022-12-31T04:56:28.297Z,76.65
2022-12-31T04:58:55.457Z,76.14
2022-12-31T05:01:22.485Z,76.13
2022-12-31T05:03:49.269Z,76.02
2022-12-31T05:06:18.540Z,75.88
2022-12-31T05:08:45.442Z,75.93
2022-12-31T05:11:12.261Z,75.84
2022-12-31T05:13:39.116Z,75.39
2022-12-31T05:16:06.433Z,75.51
2022-12-31T05:18:33.473Z,75.51
2022-12-31T05:21:00.092Z,75.17
2022-12-31T05:23:26.846Z,75.12
2022-12-31T05:25:53.428Z,75.09
2022-12-31T05:28:20.209Z,75.14
2022-12-31T05:30:50.101Z,75.54
2022-12-31T05:33:17.638Z,75.53
2022-12-31T05:35:44.737Z,75.74
2022-12-31T05:38:11.513Z,74.99
2022-12-31T05:40:38.100Z,75.16
2022-12-31T05:43:04.449Z,75.60
2022-12-31T05:45:31.424Z,75.84
2022-12-31T05:47:58.254Z,76.02
2022-12-31T05:50:24.586Z,76.16
2022-12-31T05:52:50.950Z,75.89
2022-12-31T05:55:17.503Z,75.86
2022-12-31T05:57:43.851Z,76.40
2022-12-31T06:00:10.857Z,77.65
2022-12-31T06:02:37.260Z,77.37
2022-12-31T06:05:04.087Z,77.61
2022-12-31T06:07:30.431Z,77.87
2022-12-31T06:09:56.773Z,77.95
2022-12-31T06:12:23.113Z,77.82
2022-12-31T06:14:49.470Z,77.70
2022-12-31T06:17:15.810Z,77.46
2022-12-31T06:19:42.140Z,77.37
2022-12-31T06:22:08.486Z,77.32
2022-12-31T06:24:34.829Z,77.31
2022-12-31T06:27:01.163Z,77.58
2022-12-31T06:29:27.563Z,77.55
2022-12-31T06:31:53.891Z,77.08
2022-12-31T06:34:20.233Z,77.24
2022-12-31T06:36:46.568Z,77.23
2022-12-31T06:39:12.942Z,76.81
2022-12-31T06:41:39.298Z,77.06
2022-12-31T06:44:05.978Z,76.38
2022-12-31T06:46:32.407Z,75.92
2022-12-31T06:48:58.744Z,76.54
2022-12-31T06:51:25.099Z,76.50
2022-12-31T06:53:51.829Z,76.65
2022-12-31T06:56:31.267Z,76.26
2022-12-31T06:59:00.364Z,76.99
2022-12-31T07:01:45.822Z,76.58
2022-12-31T07:04:33.376Z,76.93
2022-12-31T07:07:14.982Z,76.50
2022-12-31T07:09:57.317Z,76.47
2022-12-31T07:12:40.283Z,76.79
2022-12-31T07:15:16.590Z,76.81
2022-12-31T07:17:54.833Z,77.15
2022-12-31T07:20:21.685Z,77.40
2022-12-31T07:22:48.435Z,78.18
2022-12-31T07:25:16.953Z,78.06
2022-12-31T07:28:08.415Z,77.48
2022-12-31T07:30:46.924Z,77.17
2022-12-31T07:33:27.964Z,77.19
2022-12-31T07:36:05.411Z,77.51
2022-12-31T07:39:05.648Z,77.23
2022-12-31T07:41:50.580Z,77.06
2022-12-31T07:44:34.088Z,77.24
2022-12-31T07:47:03.245Z,77.14
2022-12-31T07:49:32.853Z,77.38
2022-12-31T07:51:59.570Z,77.35
2022-12-31T07:54:26.003Z,77.61
2022-12-31T07:56:52.455Z,77.40
2022-12-31T07:59:36.810Z,77.19
2022-12-31T08:02:08.128Z,77.30
2022-12-31T08:04:49.636Z,77.19
2022-12-31T08:07:25.925Z,76.89
2022-12-31T08:10:18.206Z,76.78
2022-12-31T08:12:46.876Z,77.05
2022-12-31T08:15:15.953Z,76.69
2022-12-31T08:17:43.282Z,76.97
2022-12-31T08:20:17.535Z,76.55
2022-12-31T08:22:51.019Z,76.25
2022-12-31T08:25:33.576Z,76.13
2022-12-31T08:28:12.675Z,76.05
2022-12-31T08:30:52.257Z,75.40
2022-12-31T08:33:44.336Z,74.96
2022-12-31T08:36:38.467Z,75.05
2022-12-31T08:39:33.225Z,75.15
2022-12-31T08:42:03.679Z,74.49
2022-12-31T08:44:45.046Z,74.27
2022-12-31T08:47:38.711Z,73.82
2022-12-31T08:50:05.893Z,73.89
2022-12-31T08:52:32.533Z,74.16
2022-12-31T08:54:59.332Z,74.21
2022-12-31T08:57:57.623Z,74.39
2022-12-31T09:00:24.386Z,74.52
2022-12-31T09:02:56.675Z,73.91
2022-12-31T09:05:34.988Z,73.53
2022-12-31T09:08:28.395Z,73.11
2022-12-31T09:11:23.508Z,72.49
2022-12-31T09:14:30.649Z,71.79
2022-12-31T09:17:24.795Z,71.32
2022-12-31T09:19:51.700Z,71.24
2022-12-31T09:22:18.279Z,70.46
2022-12-31T09:24:44.849Z,71.14
2022-12-31T09:27:27.416Z,71.25
2022-12-31T09:30:09.808Z,70.51
2022-12-31T09:33:00.597Z,70.41
2022-12-31T09:35:38.421Z,69.82
2022-12-31T09:38:16.416Z,69.10
2022-12-31T09:41:11.412Z,67.98
2022-12-31T09:44:03.383Z,67.46
2022-12-31T09:47:09.134Z,67.49
2022-12-31T09:50:18.747Z,66.71
2022-12-31T09:53:00.699Z,66.88
2022-12-31T09:55:37.940Z,66.31
2022-12-31T09:58:35.304Z,65.72
2022-12-31T10:01:22.698Z,66.61
2022-12-31T10:04:10.764Z,66.90
2022-12-31T10:07:00.475Z,66.14
2022-12-31T10:09:41.442Z,65.43
2022-12-31T10:12:22.838Z,65.52
2022-12-31T10:15:27.166Z,64.43
2022-12-31T10:18:17.941Z,63.78
2022-12-31T10:21:20.808Z,62.97
2022-12-31T10:23:54.032Z,64.54
2022-12-31T10:26:53.541Z,64.52
2022-12-31T10:29:47.653Z,65.54
2022-12-31T10:32:43.471Z,66.54
2022-12-31T10:35:31.740Z,65.81
2022-12-31T10:38:14.051Z,66.23
2022-12-31T10:40:58.531Z,66.38
2022-12-31T10:43:27.755Z,66.57
2022-12-31T10:46:29.655Z,66.99
2022-12-31T10:49:11.284Z,66.77
2022-12-31T10:52:10.476Z,65.89
2022-12-31T10:54:46.039Z,65.77
2022-12-31T10:57:36.427Z,65.37
2022-12-31T11:00:16.610Z,64.91
2022-12-31T11:03:17.265Z,64.81
2022-12-31T11:06:26.577Z,64.96
2022-12-31T11:09:04.948Z,64.70
2022-12-31T11:12:30.169Z,64.62
2022-12-31T11:14:56.496Z,64.70
2022-12-31T11:17:37.374Z,64.45
2022-12-31T11:20:03.911Z,64.61
2022-12-31T11:22:58.214Z,64.53
2022-12-31T11:25:55.684Z,64.28
2022-12-31T11:28:41.516Z,64.17
2022-12-31T11:31:39.340Z,64.21
2022-12-31T11:34:30.746Z,64.22
2022-12-31T11:37:16.120Z,63.38
2022-12-31T11:40:15.033Z,64.15
2022-12-31T11:43:00.794Z,64.60
2022-12-31T11:45:50.797Z,63.75
2022-12-31T11:48:48.064Z,63.60
2022-12-31T11:51:52.131Z,63.87
2022-12-31T11:54:41.226Z,63.85
2022-12-31T11:57:16.548Z,63.40
2022-12-31T11:59:43.112Z,63.54
2022-12-31T12:02:24.792Z,63.58
2022-12-31T12:04:52.443Z,64.10
2022-12-31T12:07:19.973Z,63.56
2022-12-31T12:09:46.645Z,63.60
2022-12-31T12:12:13.520Z,63.20
2022-12-31T12:14:42.906Z,63.17
2022-12-31T12:17:32.146Z,61.94
2022-12-31T12:20:13.350Z,62.65
2022-12-31T12:22:49.653Z,62.36
2022-12-31T12:25:20.937Z,62.45
2022-12-31T12:27:47.481Z,62.19
2022-12-31T12:30:26.155Z,61.92
2022-12-31T12:33:01.681Z,62.02
2022-12-31T12:35:31.663Z,62.57
2022-12-31T12:38:07.662Z,63.64
2022-12-31T12:40:34.947Z,64.40
2022-12-31T12:43:02.232Z,64.15
2022-12-31T12:45:40.601Z,63.25
2022-12-31T12:48:18.695Z,63.73
2022-12-31T12:50:48.154Z,63.62
2022-12-31T12:53:39.370Z,62.04
2022-12-31T12:56:18.665Z,62.31
2022-12-31T12:59:10.050Z,62.06
2022-12-31T13:01:46.520Z,61.75
2022-12-31T13:04:40.455Z,61.65
2022-12-31T13:07:24.509Z,61.18
2022-12-31T13:10:16.189Z,61.10
2022-12-31T13:15:50.108Z,62.13
2022-12-31T13:18:54.679Z,62.06
2022-12-31T13:21:23.727Z,61.91
2022-12-31T13:23:53.374Z,61.45
2022-12-31T13:26:24.088Z,60.52
2022-12-31T13:28:52.577Z,60.20
2022-12-31T13:31:26.083Z,60.21
2022-12-31T13:34:01.199Z,60.00
2022-12-31T13:36:29.774Z,60.51
2022-12-31T13:39:00.641Z,59.77
2022-12-31T13:41:31.830Z,59.61
2022-12-31T13:44:26.957Z,59.28
2022-12-31T13:47:12.972Z,58.79
2022-12-31T13:49:56.250Z,58.54
2022-12-31T13:53:00.129Z,58.39
2022-12-31T13:55:32.288Z,58.12
2022-12-31T13:58:23.011Z,58.84
2022-12-31T14:00:56.232Z,58.29
2022-12-31T14:03:31.571Z,57.69
2022-12-31T14:06:06.935Z,57.71
2022-12-31T14:08:33.325Z,57.18
2022-12-31T14:11:44.083Z,57.25
2022-12-31T14:14:18.668Z,57.06
2022-12-31T14:16:52.998Z,57.21
2022-12-31T14:19:44.185Z,57.30
2022-12-31T14:22:30.718Z,57.13
2022-12-31T14:25:00.727Z,56.98
2022-12-31T14:27:31.908Z,57.32
2022-12-31T14:30:03.044Z,56.98
2022-12-31T14:32:38.443Z,57.04
2022-12-31T14:35:22.394Z,57.20
2022-12-31T14:38:01.117Z,57.63
2022-12-31T14:40:54.034Z,58.02
2022-12-31T14:43:52.766Z,58.01
2022-12-31T14:46:38.872Z,58.16
2022-12-31T14:49:52.924Z,58.47
2022-12-31T14:52:25.548Z,58.67
2022-12-31T14:55:01.459Z,58.75
2022-12-31T14:58:16.794Z,58.53
2022-12-31T15:00:38.112Z,58.80
2022-12-31T15:03:23.418Z,59.06
2022-12-31T15:05:58.956Z,59.04
2022-12-31T15:09:07.918Z,58.80
2022-12-31T15:11:48.254Z,59.52
2022-12-31T15:14:26.695Z,59.19
2022-12-31T15:17:06.593Z,58.69
2022-12-31T15:19:51.424Z,59.08
2022-12-31T15:22:44.933Z,59.10
2022-12-31T15:25:40.396Z,58.79
2022-12-31T15:28:30.454Z,58.56
2022-12-31T15:31:03.552Z,58.47
2022-12-31T15:33:34.480Z,58.73
2022-12-31T15:36:13.730Z,58.20
2022-12-31T15:38:41.605Z,58.15
2022-12-31T15:41:18.536Z,57.98
2022-12-31T15:43:59.523Z,58.16
2022-12-31T15:46:31.564Z,58.03
2022-12-31T15:49:06.819Z,58.99
2022-12-31T15:52:01.874Z,59.85
2022-12-31T15:54:41.236Z,59.87
2022-12-31T15:57:16.250Z,62.84
2022-12-31T15:59:43.578Z,63.33
2022-12-31T16:02:21.062Z,64.52
2022-12-31T16:04:48.906Z,63.59
2022-12-31T16:07:17.005Z,64.17
2022-12-31T16:09:48.176Z,64.25
2022-12-31T16:12:32.508Z,64.05
2022-12-31T16:15:01.529Z,63.86
2022-12-31T16:17:33.737Z,63.75
2022-12-31T16:20:01.872Z,63.29
2022-12-31T16:22:36.791Z,63.14
2022-12-31T16:25:30.110Z,63.11
2022-12-31T16:27:51.792Z,62.51
2022-12-31T16:30:30.299Z,62.62
2022-12-31T16:33:05.287Z,62.84
2022-12-31T16:35:34.356Z,62.97
2022-12-31T16:38:15.288Z,62.49
2022-12-31T16:40:45.511Z,61.92
2022-12-31T16:43:37.682Z,61.64
2022-12-31T16:46:18.696Z,62.11
2022-12-31T16:48:47.985Z,62.67
2022-12-31T16:51:19.738Z,61.88
2022-12-31T16:53:47.364Z,61.61
2022-12-31T16:56:22.929Z,61.32
2022-12-31T16:58:53.161Z,61.52
2022-12-31T17:01:30.245Z,61.26
2022-12-31T17:04:00.564Z,60.47
2022-12-31T17:06:28.335Z,60.28
2022-12-31T17:08:59.364Z,59.83
2022-12-31T17:11:41.805Z,59.67
2022-12-31T17:14:11.040Z,58.90
2022-12-31T17:16:59.538Z,58.79
2022-12-31T17:19:35.169Z,58.40
2022-12-31T17:22:03.146Z,58.88
2022-12-31T17:24:29.844Z,60.30
2022-12-31T17:27:04.833Z,61.64
2022-12-31T17:29:31.823Z,61.46
2022-12-31T17:32:17.862Z,61.51
2022-12-31T17:34:49.168Z,61.78
2022-12-31T17:37:24.968Z,61.60
2022-12-31T17:40:10.880Z,61.05
2022-12-31T17:42:46.068Z,61.13
2022-12-31T17:45:20.233Z,61.29
2022-12-31T17:47:50.850Z,61.39
2022-12-31T17:50:20.391Z,61.69
2022-12-31T17:52:47.528Z,61.67
2022-12-31T17:55:13.995Z,61.26
2022-12-31T17:57:50.242Z,61.80
2022-12-31T18:00:19.759Z,61.32
2022-12-31T18:02:46.275Z,61.28
2022-12-31T18:05:19.953Z,61.08
2022-12-31T18:07:47.169Z,61.44
2022-12-31T18:10:15.295Z,61.42
2022-12-31T18:12:44.008Z,61.08
2022-12-31T18:15:15.991Z,61.11
2022-12-31T18:17:42.908Z,61.25
2022-12-31T18:20:09.901Z,60.92
2022-12-31T18:22:36.930Z,60.90
2022-12-31T18:25:04.088Z,60.56
2022-12-31T18:27:30.693Z,60.80
2022-12-31T18:30:04.085Z,60.04
2022-12-31T18:32:32.841Z,60.11
2022-12-31T18:34:59.288Z,59.40
2022-12-31T18:37:28.182Z,58.93
2022-12-31T18:39:54.631Z,59.09
2022-12-31T18:42:25.375Z,60.42
2022-12-31T18:44:51.730Z,60.08
2022-12-31T18:47:22.961Z,60.29
2022-12-31T18:49:50.060Z,59.99
2022-12-31T18:52:21.509Z,59.10
2022-12-31T18:54:48.302Z,59.07
2022-12-31T18:57:15.956Z,58.40
2022-12-31T18:59:42.309Z,58.31
2022-12-31T19:02:20.560Z,58.34
2022-12-31T19:04:47.933Z,57.63
2022-12-31T19:07:14.283Z,58.11
2022-12-31T19:09:45.506Z,57.71
2022-12-31T19:12:13.624Z,57.67
2022-12-31T19:14:40.383Z,57.48
2022-12-31T19:19:32.123Z,57.61
2022-12-31T19:21:58.488Z,57.96
2022-12-31T19:24:26.905Z,57.38
2022-12-31T19:26:54.176Z,57.67
2022-12-31T19:29:22.724Z,58.37
2022-12-31T19:31:49.412Z,58.50
2022-12-31T19:34:16.516Z,58.29
2022-12-31T19:36:44.267Z,58.66
2022-12-31T19:39:15.739Z,59.43
2022-12-31T19:41:43.669Z,58.85
2022-12-31T19:44:18.524Z,58.75
2022-12-31T19:46:46.007Z,59.42
2022-12-31T19:49:13.968Z,60.07
2022-12-31T19:51:41.094Z,60.51
2022-12-31T19:54:07.921Z,60.58
2022-12-31T19:56:34.272Z,60.43
2022-12-31T19:59:05.646Z,61.13
2022-12-31T20:01:32.077Z,61.00
2022-12-31T20:03:58.495Z,60.61
2022-12-31T20:06:24.890Z,60.04
2022-12-31T20:08:51.226Z,59.96
2022-12-31T20:11:20.587Z,59.58
2022-12-31T20:13:48.201Z,59.86
2022-12-31T20:16:17.032Z,59.53
2022-12-31T20:18:44.877Z,59.08
2022-12-31T20:21:14.419Z,59.13
2022-12-31T20:23:40.832Z,59.21
2022-12-31T20:26:07.173Z,59.25
2022-12-31T20:28:33.600Z,58.90
2022-12-31T20:31:05.274Z,58.82
2022-12-31T20:33:31.681Z,59.71
2022-12-31T20:36:02.228Z,60.25
2022-12-31T20:38:28.548Z,59.55
2022-12-31T20:40:54.899Z,59.32
2022-12-31T20:43:21.250Z,59.23
2022-12-31T20:45:47.742Z,59.15
2022-12-31T20:48:14.292Z,59.37
2022-12-31T20:50:40.835Z,59.36
2022-12-31T20:53:07.193Z,59.26
2022-12-31T20:55:37.319Z,59.26
2022-12-31T20:58:04.922Z,59.14
2022-12-31T21:00:32.097Z,59.53
2022-12-31T21:03:10.464Z,58.81
2022-12-31T21:05:51.645Z,59.32
2022-12-31T21:08:18.332Z,58.65
2022-12-31T21:10:47.804Z,58.48
2022-12-31T21:13:14.965Z,58.09
2022-12-31T21:15:41.348Z,58.26
2022-12-31T21:18:07.683Z,57.82
2022-12-31T21:20:34.021Z,58.60
2022-12-31T21:23:00.320Z,58.28
2022-12-31T21:25:26.654Z,57.84
2022-12-31T21:27:53.001Z,57.98
2022-12-31T21:30:20.840Z,57.52
2022-12-31T21:32:47.948Z,57.97
2022-12-31T21:35:42.281Z,57.61
2022-12-31T21:38:05.642Z,57.90
2022-12-31T21:40:33.219Z,58.00
2022-12-31T21:42:59.618Z,57.91
2022-12-31T21:45:26.028Z,58.09
2022-12-31T21:48:10.971Z,61.13
2022-12-31T21:50:37.284Z,62.87
2022-12-31T21:53:03.617Z,63.68
2022-12-31T21:55:48.361Z,64.40
2022-12-31T21:58:25.770Z,63.76
2022-12-31T22:01:12.033Z,63.49
2022-12-31T22:03:38.614Z,63.11
2022-12-31T22:06:12.028Z,63.55
2022-12-31T22:08:46.115Z,63.66
2022-12-31T22:11:13.985Z,63.58
2022-12-31T22:13:41.444Z,62.22
2022-12-31T22:16:08.635Z,62.05
2022-12-31T22:18:39.100Z,61.27
2022-12-31T22:21:18.300Z,60.75
2022-12-31T22:23:47.823Z,61.47
2022-12-31T22:26:15.815Z,61.24
2022-12-31T22:28:43.934Z,61.72
2022-12-31T22:31:16.624Z,61.76
2022-12-31T22:33:43.846Z,61.88
2022-12-31T22:36:13.165Z,61.72
2022-12-31T22:38:39.796Z,61.75
2022-12-31T22:41:23.174Z,62.44
2022-12-31T22:43:57.219Z,62.43
2022-12-31T22:46:28.931Z,62.51
2022-12-31T22:48:57.816Z,62.86
2022-12-31T22:51:24.367Z,62.84
2022-12-31T22:53:50.691Z,62.99
2022-12-31T22:56:18.629Z,62.99
2022-12-31T22:58:45.446Z,63.35
2022-12-31T23:01:20.509Z,63.57
2022-12-31T23:03:48.113Z,63.50
2022-12-31T23:06:15.131Z,63.45
2022-12-31T23:08:41.982Z,64.14
2022-12-31T23:11:11.347Z,64.29
2022-12-31T23:14:01.467Z,64.50
2022-12-31T23:16:48.312Z,65.00
2022-12-31T23:19:34.593Z,64.57
2022-12-31T23:22:19.840Z,63.60
2022-12-31T23:24:46.193Z,63.54
2022-12-31T23:27:12.611Z,63.22
2022-12-31T23:29:46.233Z,63.65
2022-12-31T23:32:17.731Z,63.90
2022-12-31T23:34:45.236Z,64.52
2022-12-31T23:37:13.442Z,64.89
2022-12-31T23:39:40.082Z,64.80
2022-12-31T23:42:06.546Z,64.71
2022-12-31T23:44:33.078Z,64.54
2022-12-31T23:46:59.575Z,64.86
2022-12-31T23:49:25.956Z,64.61
2022-12-31T23:51:52.388Z,64.08
2022-12-31T23:54:18.728Z,63.66
2022-12-31T23:56:45.167Z,62.60
2022-12-31T23:59:12.735Z,61.60
